sensor_id;sensor_type;location;lat;lon;timestamp;pressure;altitude;pressure_sealevel;temperature;humidity
6938;BME280;40040;42.706;23.372;2023-01-31T00:00:52;144215.75;;;0.09;100.00
6938;BME280;40040;42.706;23.372;2023-01-31T00:03:19;144226.78;;;0.14;100.00
6938;BME280;40040;42.706;23.372;2023-01-31T00:05:45;144239.00;;;0.19;100.00
6938;BME280;40040;42.706;23.372;2023-01-31T00:08:12;144243.91;;;0.21;100.00
6938;BME280;40040;42.706;23.372;2023-01-31T00:10:41;144239.00;;;0.19;100.00
6938;BME280;40040;42.706;23.372;2023-01-31T00:13:08;144221.88;;;0.12;100.00
6938;BME280;40040;42.706;23.372;2023-01-31T00:15:34;144194.97;;;0.00;100.00
6938;BME280;40040;42.706;23.372;2023-01-31T00:18:01;144185.22;;;-0.04;100.00
6938;BME280;40040;42.706;23.372;2023-01-31T00:20:28;144192.53;;;-0.01;100.00
6938;BME280;40040;42.706;23.372;2023-01-31T00:22:55;144201.09;;;0.03;100.00
6938;BME280;40040;42.706;23.372;2023-01-31T00:25:22;144158.28;;;-0.15;100.00
6938;BME280;40040;42.706;23.372;2023-01-31T00:27:50;144208.41;;;0.06;100.00
6938;BME280;40040;42.706;23.372;2023-01-31T00:30:17;144190.06;;;-0.02;100.00
6938;BME280;40040;42.706;23.372;2023-01-31T00:32:43;144192.53;;;-0.01;100.00
6938;BME280;40040;42.706;23.372;2023-01-31T00:35:10;144174.16;;;-0.08;100.00
6938;BME280;40040;42.706;23.372;2023-01-31T00:37:37;144175.41;;;-0.08;100.00
6938;BME280;40040;42.706;23.372;2023-01-31T00:40:05;144159.53;;;-0.14;100.00
6938;BME280;40040;42.706;23.372;2023-01-31T00:42:32;144069.03;;;-0.51;100.00
6938;BME280;40040;42.706;23.372;2023-01-31T00:45:01;144092.25;;;-0.42;100.00
6938;BME280;40040;42.706;23.372;2023-01-31T00:47:27;144136.28;;;-0.24;100.00
6938;BME280;40040;42.706;23.372;2023-01-31T00:49:55;144148.50;;;-0.19;100.00
6938;BME280;40040;42.706;23.372;2023-01-31T00:52:21;144143.59;;;-0.21;100.00
6938;BME280;40040;42.706;23.372;2023-01-31T00:54:48;144150.97;;;-0.18;100.00
6938;BME280;40040;42.706;23.372;2023-01-31T00:57:15;144153.38;;;-0.17;100.00
6938;BME280;40040;42.706;23.372;2023-01-31T00:59:42;144142.41;;;-0.21;100.00
6938;BME280;40040;42.706;23.372;2023-01-31T01:02:10;144161.94;;;-0.13;100.00
6938;BME280;40040;42.706;23.372;2023-01-31T01:04:37;144135.03;;;-0.24;100.00
6938;BME280;40040;42.706;23.372;2023-01-31T01:07:04;144131.38;;;-0.26;100.00
6938;BME280;40040;42.706;23.372;2023-01-31T01:09:30;144141.16;;;-0.22;100.00
6938;BME280;40040;42.706;23.372;2023-01-31T01:11:58;144071.47;;;-0.50;100.00
6938;BME280;40040;42.706;23.372;2023-01-31T01:14:24;144070.28;;;-0.51;100.00
6938;BME280;40040;42.706;23.372;2023-01-31T01:16:51;144075.13;;;-0.49;100.00
6938;BME280;40040;42.706;23.372;2023-01-31T01:19:24;144124.06;;;-0.29;100.00
6938;BME280;40040;42.706;23.372;2023-01-31T01:21:53;144148.50;;;-0.19;100.00
6938;BME280;40040;42.706;23.372;2023-01-31T01:24:20;144136.28;;;-0.24;100.00
6938;BME280;40040;42.706;23.372;2023-01-31T01:26:47;144093.47;;;-0.41;100.00
6938;BME280;40040;42.706;23.372;2023-01-31T01:29:14;144144.84;;;-0.20;100.00
6938;BME280;40040;42.706;23.372;2023-01-31T01:31:41;144148.50;;;-0.19;100.00
6938;BME280;40040;42.706;23.372;2023-01-31T01:34:12;144155.81;;;-0.16;100.00
6938;BME280;40040;42.706;23.372;2023-01-31T01:36:41;144153.38;;;-0.17;100.00
6938;BME280;40040;42.706;23.372;2023-01-31T01:39:10;144161.94;;;-0.13;100.00
6938;BME280;40040;42.706;23.372;2023-01-31T01:41:38;144168.09;;;-0.11;100.00
6938;BME280;40040;42.706;23.372;2023-01-31T01:47:10;144187.63;;;-0.03;100.00
6938;BME280;40040;42.706;23.372;2023-01-31T01:49:38;144187.63;;;-0.03;100.00
6938;BME280;40040;42.706;23.372;2023-01-31T01:52:08;144128.94;;;-0.27;100.00
6938;BME280;40040;42.706;23.372;2023-01-31T01:54:42;144216.97;;;0.10;100.00
6938;BME280;40040;42.706;23.372;2023-01-31T01:57:11;144212.06;;;0.08;100.00
6938;BME280;40040;42.706;23.372;2023-01-31T01:59:45;144220.63;;;0.11;100.00
6938;BME280;40040;42.706;23.372;2023-01-31T02:02:13;144227.97;;;0.14;100.00
6938;BME280;40040;42.706;23.372;2023-01-31T02:04:42;144224.31;;;0.13;100.00
6938;BME280;40040;42.706;23.372;2023-01-31T02:07:12;144239.00;;;0.19;100.00
6938;BME280;40040;42.706;23.372;2023-01-31T02:09:44;144199.84;;;0.03;100.00
6938;BME280;40040;42.706;23.372;2023-01-31T02:12:12;144257.38;;;0.26;100.00
6938;BME280;40040;42.706;23.372;2023-01-31T02:14:40;144188.88;;;-0.02;100.00
6938;BME280;40040;42.706;23.372;2023-01-31T02:17:13;144280.59;;;0.36;100.00
6938;BME280;40040;42.706;23.372;2023-01-31T02:19:54;144279.34;;;0.35;100.00
6938;BME280;40040;42.706;23.372;2023-01-31T02:22:30;144285.47;;;0.38;100.00
6938;BME280;40040;42.706;23.372;2023-01-31T02:31:55;144312.41;;;0.49;100.00
6938;BME280;40040;42.706;23.372;2023-01-31T02:34:30;144320.97;;;0.52;100.00
6938;BME280;40040;42.706;23.372;2023-01-31T02:37:11;144318.50;;;0.51;100.00
6938;BME280;40040;42.706;23.372;2023-01-31T02:39:46;144322.16;;;0.53;100.00
6938;BME280;40040;42.706;23.372;2023-01-31T02:42:19;144236.53;;;0.18;100.00
6938;BME280;40040;42.706;23.372;2023-01-31T02:44:52;144322.16;;;0.53;100.00
6938;BME280;40040;42.706;23.372;2023-01-31T02:47:38;144256.13;;;0.26;100.00
6938;BME280;40040;42.706;23.372;2023-01-31T02:50:12;144312.41;;;0.49;100.00
6938;BME280;40040;42.706;23.372;2023-01-31T02:52:45;144323.41;;;0.53;100.00
6938;BME280;40040;42.706;23.372;2023-01-31T02:55:17;144309.94;;;0.48;100.00
6938;BME280;40040;42.706;23.372;2023-01-31T02:58:05;144319.72;;;0.52;100.00
6938;BME280;40040;42.706;23.372;2023-01-31T03:00:35;144309.94;;;0.48;100.00
6938;BME280;40040;42.706;23.372;2023-01-31T03:03:05;144307.50;;;0.47;100.00
6938;BME280;40040;42.706;23.372;2023-01-31T03:05:34;144312.41;;;0.49;100.00
6938;BME280;40040;42.706;23.372;2023-01-31T03:08:03;144296.47;;;0.42;100.00
6938;BME280;40040;42.706;23.372;2023-01-31T03:10:50;144307.50;;;0.47;100.00
6938;BME280;40040;42.706;23.372;2023-01-31T03:13:32;144307.50;;;0.47;100.00
6938;BME280;40040;42.706;23.372;2023-01-31T03:16:16;144302.59;;;0.45;100.00
6938;BME280;40040;42.706;23.372;2023-01-31T03:19:08;144312.41;;;0.49;100.00
6938;BME280;40040;42.706;23.372;2023-01-31T03:21:43;144296.47;;;0.42;100.00
6938;BME280;40040;42.706;23.372;2023-01-31T03:24:11;144289.16;;;0.39;100.00
6938;BME280;40040;42.706;23.372;2023-01-31T03:26:39;144251.22;;;0.24;100.00
6938;BME280;40040;42.706;23.372;2023-01-31T03:29:09;144273.25;;;0.33;100.00
6938;BME280;40040;42.706;23.372;2023-01-31T03:31:38;144292.81;;;0.41;100.00
6938;BME280;40040;42.706;23.372;2023-01-31T03:34:07;144225.53;;;0.13;100.00
6938;BME280;40040;42.706;23.372;2023-01-31T03:36:40;144268.34;;;0.31;100.00
6938;BME280;40040;42.706;23.372;2023-01-31T03:39:13;144278.16;;;0.35;100.00
6938;BME280;40040;42.706;23.372;2023-01-31T03:41:55;144243.91;;;0.21;100.00
6938;BME280;40040;42.706;23.372;2023-01-31T03:44:30;144239.00;;;0.19;100.00
6938;BME280;40040;42.706;23.372;2023-01-31T03:47:03;144280.59;;;0.36;100.00
6938;BME280;40040;42.706;23.372;2023-01-31T03:49:33;144268.34;;;0.31;100.00
6938;BME280;40040;42.706;23.372;2023-01-31T03:52:04;144272.03;;;0.32;100.00
6938;BME280;40040;42.706;23.372;2023-01-31T03:54:36;144170.50;;;-0.10;100.00
6938;BME280;40040;42.706;23.372;2023-01-31T03:57:11;144256.13;;;0.26;100.00
6938;BME280;40040;42.706;23.372;2023-01-31T03:59:42;144253.66;;;0.25;100.00
6938;BME280;40040;42.706;23.372;2023-01-31T04:02:14;144252.47;;;0.24;100.00
6938;BME280;40040;42.706;23.372;2023-01-31T04:04:45;144256.13;;;0.26;100.00
6938;BME280;40040;42.706;23.372;2023-01-31T04:07:15;144247.56;;;0.22;100.00
6938;BME280;40040;42.706;23.372;2023-01-31T04:09:43;144232.88;;;0.16;100.00
6938;BME280;40040;42.706;23.372;2023-01-31T04:12:12;144236.53;;;0.18;100.00
6938;BME280;40040;42.706;23.372;2023-01-31T04:14:39;144239.00;;;0.19;100.00
6938;BME280;40040;42.706;23.372;2023-01-31T04:17:06;144241.44;;;0.20;100.00
6938;BME280;40040;42.706;23.372;2023-01-31T04:19:33;144241.44;;;0.20;100.00
6938;BME280;40040;42.706;23.372;2023-01-31T04:22:00;144248.81;;;0.23;100.00
6938;BME280;40040;42.706;23.372;2023-01-31T04:24:28;144248.81;;;0.23;100.00
6938;BME280;40040;42.706;23.372;2023-01-31T04:26:55;144253.66;;;0.25;100.00
6938;BME280;40040;42.706;23.372;2023-01-31T04:29:22;144257.38;;;0.26;100.00
6938;BME280;40040;42.706;23.372;2023-01-31T04:31:48;144263.44;;;0.29;100.00
6938;BME280;40040;42.706;23.372;2023-01-31T04:34:15;144144.84;;;-0.20;100.00
6938;BME280;40040;42.706;23.372;2023-01-31T04:36:42;144212.06;;;0.08;100.00
6938;BME280;40040;42.706;23.372;2023-01-31T04:39:09;144258.56;;;0.27;100.00
6938;BME280;40040;42.706;23.372;2023-01-31T04:41:39;144254.88;;;0.25;100.00
6938;BME280;40040;42.706;23.372;2023-01-31T04:44:06;144253.66;;;0.25;100.00
6938;BME280;40040;42.706;23.372;2023-01-31T04:46:33;144258.56;;;0.27;100.00
6938;BME280;40040;42.706;23.372;2023-01-31T04:48:59;144258.56;;;0.27;100.00
6938;BME280;40040;42.706;23.372;2023-01-31T04:51:26;144261.03;;;0.28;100.00
6938;BME280;40040;42.706;23.372;2023-01-31T04:53:53;144251.22;;;0.24;100.00
6938;BME280;40040;42.706;23.372;2023-01-31T04:56:20;144180.31;;;-0.06;100.00
6938;BME280;40040;42.706;23.372;2023-01-31T04:58:48;144250.00;;;0.23;100.00
6938;BME280;40040;42.706;23.372;2023-01-31T05:01:15;144237.75;;;0.18;100.00
6938;BME280;40040;42.706;23.372;2023-01-31T05:03:42;144234.09;;;0.17;100.00
6938;BME280;40040;42.706;23.372;2023-01-31T05:06:09;144248.81;;;0.23;100.00
6938;BME280;40040;42.706;23.372;2023-01-31T05:08:36;144182.75;;;-0.05;100.00
6938;BME280;40040;42.706;23.372;2023-01-31T05:11:03;144253.66;;;0.25;100.00
6938;BME280;40040;42.706;23.372;2023-01-31T05:13:31;144253.66;;;0.25;100.00
6938;BME280;40040;42.706;23.372;2023-01-31T05:16:05;144264.69;;;0.29;100.00
6938;BME280;40040;42.706;23.372;2023-01-31T05:18:32;144262.22;;;0.28;100.00
6938;BME280;40040;42.706;23.372;2023-01-31T05:20:59;144265.94;;;0.30;100.00
6938;BME280;40040;42.706;23.372;2023-01-31T05:23:26;144263.44;;;0.29;100.00
6938;BME280;40040;42.706;23.372;2023-01-31T05:25:53;144265.94;;;0.30;100.00
6938;BME280;40040;42.706;23.372;2023-01-31T05:28:20;144268.34;;;0.31;100.00
6938;BME280;40040;42.706;23.372;2023-01-31T05:30:47;144281.81;;;0.36;100.00
6938;BME280;40040;42.706;23.372;2023-01-31T05:33:15;144283.00;;;0.37;100.00
6938;BME280;40040;42.706;23.372;2023-01-31T05:35:45;144285.47;;;0.38;100.00
6938;BME280;40040;42.706;23.372;2023-01-31T05:38:11;144290.38;;;0.40;100.00
6938;BME280;40040;42.706;23.372;2023-01-31T05:40:38;144300.13;;;0.44;100.00
6938;BME280;40040;42.706;23.372;2023-01-31T05:43:05;144253.66;;;0.25;100.00
6938;BME280;40040;42.706;23.372;2023-01-31T05:45:32;144300.13;;;0.44;100.00
6938;BME280;40040;42.706;23.372;2023-01-31T05:47:59;144270.78;;;0.32;100.00
6938;BME280;40040;42.706;23.372;2023-01-31T05:50:27;144300.13;;;0.44;100.00
6938;BME280;40040;42.706;23.372;2023-01-31T05:52:56;144278.16;;;0.35;100.00
6938;BME280;40040;42.706;23.372;2023-01-31T05:55:24;144309.94;;;0.48;100.00
6938;BME280;40040;42.706;23.372;2023-01-31T05:57:51;144314.84;;;0.50;100.00
6938;BME280;40040;42.706;23.372;2023-01-31T06:00:19;144309.94;;;0.48;100.00
6938;BME280;40040;42.706;23.372;2023-01-31T06:02:46;144319.72;;;0.52;100.00
6938;BME280;40040;42.706;23.372;2023-01-31T06:05:13;144328.31;;;0.55;100.00
6938;BME280;40040;42.706;23.372;2023-01-31T06:07:42;144258.56;;;0.27;100.00
6938;BME280;40040;42.706;23.372;2023-01-31T06:10:10;144303.84;;;0.45;100.00
6938;BME280;40040;42.706;23.372;2023-01-31T06:12:38;144349.09;;;0.64;100.00
6938;BME280;40040;42.706;23.372;2023-01-31T06:15:05;144275.69;;;0.34;100.00
6938;BME280;40040;42.706;23.372;2023-01-31T06:17:32;144344.19;;;0.62;100.00
6938;BME280;40040;42.706;23.372;2023-01-31T06:19:59;144349.09;;;0.64;100.00
6938;BME280;40040;42.706;23.372;2023-01-31T06:22:26;144316.06;;;0.50;100.00
6938;BME280;40040;42.706;23.372;2023-01-31T06:24:54;144363.75;;;0.70;100.00
6938;BME280;40040;42.706;23.372;2023-01-31T06:27:21;144329.53;;;0.56;100.00
6938;BME280;40040;42.706;23.372;2023-01-31T06:29:47;144368.66;;;0.72;100.00
6938;BME280;40040;42.706;23.372;2023-01-31T06:32:14;144373.56;;;0.74;100.00
6938;BME280;40040;42.706;23.372;2023-01-31T06:34:41;144373.56;;;0.74;100.00
6938;BME280;40040;42.706;23.372;2023-01-31T06:37:08;144380.88;;;0.77;100.00
6938;BME280;40040;42.706;23.372;2023-01-31T06:39:35;144380.88;;;0.77;100.00
6938;BME280;40040;42.706;23.372;2023-01-31T06:42:04;144390.69;;;0.81;100.00
6938;BME280;40040;42.706;23.372;2023-01-31T06:44:31;144413.97;;;0.90;100.00
6938;BME280;40040;42.706;23.372;2023-01-31T06:46:58;144424.97;;;0.95;100.00
6938;BME280;40040;42.706;23.372;2023-01-31T06:49:25;144420.06;;;0.93;100.00
6938;BME280;40040;42.706;23.372;2023-01-31T06:51:52;144417.63;;;0.92;100.00
6938;BME280;40040;42.706;23.372;2023-01-31T06:54:19;144407.81;;;0.88;100.00
6938;BME280;40040;42.706;23.372;2023-01-31T06:56:46;144421.28;;;0.93;100.00
6938;BME280;40040;42.706;23.372;2023-01-31T06:59:14;144427.38;;;0.96;100.00
6938;BME280;40040;42.706;23.372;2023-01-31T07:01:41;144427.38;;;0.96;100.00
6938;BME280;40040;42.706;23.372;2023-01-31T07:04:07;144409.06;;;0.88;100.00
6938;BME280;40040;42.706;23.372;2023-01-31T07:06:34;144413.97;;;0.90;100.00
6938;BME280;40040;42.706;23.372;2023-01-31T07:09:01;144426.19;;;0.95;100.00
6938;BME280;40040;42.706;23.372;2023-01-31T07:11:28;144435.97;;;0.99;100.00
6938;BME280;40040;42.706;23.372;2023-01-31T07:13:55;144447.00;;;1.04;100.00
6938;BME280;40040;42.706;23.372;2023-01-31T07:16:23;144448.25;;;1.04;100.00
6938;BME280;40040;42.706;23.372;2023-01-31T07:18:51;144469.03;;;1.13;100.00
6938;BME280;40040;42.706;23.372;2023-01-31T07:21:18;144459.22;;;1.09;100.00
6938;BME280;40040;42.706;23.372;2023-01-31T07:23:45;144486.19;;;1.20;100.00
6938;BME280;40040;42.706;23.372;2023-01-31T07:26:12;144484.94;;;1.20;100.00
6938;BME280;40040;42.706;23.372;2023-01-31T07:28:39;144493.50;;;1.23;100.00
6938;BME280;40040;42.706;23.372;2023-01-31T07:31:07;144505.75;;;1.28;100.00
6938;BME280;40040;42.706;23.372;2023-01-31T07:33:38;144514.31;;;1.32;100.00
6938;BME280;40040;42.706;23.372;2023-01-31T07:36:06;144521.66;;;1.35;100.00
6938;BME280;40040;42.706;23.372;2023-01-31T07:38:33;144508.19;;;1.29;100.00
6938;BME280;40040;42.706;23.372;2023-01-31T07:41:01;144508.19;;;1.29;100.00
6938;BME280;40040;42.706;23.372;2023-01-31T07:43:29;144499.59;;;1.26;100.00
6938;BME280;40040;42.706;23.372;2023-01-31T07:45:57;144540.03;;;1.42;100.00
6938;BME280;40040;42.706;23.372;2023-01-31T07:48:24;144557.19;;;1.49;100.00
6938;BME280;40040;42.706;23.372;2023-01-31T07:50:57;144571.84;;;1.55;100.00
6938;BME280;40040;42.706;23.372;2023-01-31T07:53:26;144574.31;;;1.56;100.00
6938;BME280;40040;42.706;23.372;2023-01-31T07:55:53;144571.84;;;1.55;100.00
6938;BME280;40040;42.706;23.372;2023-01-31T07:58:19;144587.81;;;1.62;100.00
6938;BME280;40040;42.706;23.372;2023-01-31T08:00:46;144596.38;;;1.65;100.00
6938;BME280;40040;42.706;23.372;2023-01-31T08:03:32;144606.13;;;1.69;100.00
6938;BME280;40040;42.706;23.372;2023-01-31T08:06:02;144613.53;;;1.72;100.00
6938;BME280;40040;42.706;23.372;2023-01-31T08:08:29;144609.84;;;1.71;100.00
6938;BME280;40040;42.706;23.372;2023-01-31T08:10:56;144630.66;;;1.79;100.00
6938;BME280;40040;42.706;23.372;2023-01-31T08:13:23;144645.34;;;1.85;100.00
6938;BME280;40040;42.706;23.372;2023-01-31T08:15:51;144655.16;;;1.89;100.00
6938;BME280;40040;42.706;23.372;2023-01-31T08:18:19;144660.06;;;1.91;100.00
6938;BME280;40040;42.706;23.372;2023-01-31T08:20:45;144672.31;;;1.96;100.00
6938;BME280;40040;42.706;23.372;2023-01-31T08:23:14;144696.78;;;2.06;100.00
6938;BME280;40040;42.706;23.372;2023-01-31T08:25:41;144649.00;;;1.87;100.00
6938;BME280;40040;42.706;23.372;2023-01-31T08:28:08;144689.47;;;2.03;100.00
6938;BME280;40040;42.706;23.372;2023-01-31T08:30:38;144745.81;;;2.26;100.00
6938;BME280;40040;42.706;23.372;2023-01-31T08:33:05;144772.75;;;2.38;100.00
6938;BME280;40040;42.706;23.372;2023-01-31T08:35:32;144824.22;;;2.59;100.00
6938;BME280;40040;42.706;23.372;2023-01-31T08:37:59;144848.72;;;2.69;100.00
6938;BME280;40040;42.706;23.372;2023-01-31T08:40:27;144856.13;;;2.72;100.00
6938;BME280;40040;42.706;23.372;2023-01-31T08:42:54;144862.22;;;2.74;100.00
6938;BME280;40040;42.706;23.372;2023-01-31T08:45:21;144862.22;;;2.74;100.00
6938;BME280;40040;42.706;23.372;2023-01-31T08:47:52;144831.56;;;2.62;100.00
6938;BME280;40040;42.706;23.372;2023-01-31T08:50:19;144858.56;;;2.73;100.00
6938;BME280;40040;42.706;23.372;2023-01-31T08:52:46;144846.31;;;2.68;100.00
6938;BME280;40040;42.706;23.372;2023-01-31T08:55:17;144805.81;;;2.51;100.00
6938;BME280;40040;42.706;23.372;2023-01-31T08:57:45;144789.91;;;2.45;100.00
6938;BME280;40040;42.706;23.372;2023-01-31T09:00:13;144821.81;;;2.58;100.00
6938;BME280;40040;42.706;23.372;2023-01-31T09:02:40;144863.47;;;2.75;100.00
6938;BME280;40040;42.706;23.372;2023-01-31T09:05:08;144883.06;;;2.83;100.00
6938;BME280;40040;42.706;23.372;2023-01-31T09:07:35;144941.91;;;3.07;100.00
6938;BME280;40040;42.706;23.372;2023-01-31T09:10:01;144923.53;;;2.99;100.00
6938;BME280;40040;42.706;23.372;2023-01-31T09:12:29;144886.72;;;2.84;100.00
6938;BME280;40040;42.706;23.372;2023-01-31T09:14:57;144865.91;;;2.76;100.00
6938;BME280;40040;42.706;23.372;2023-01-31T09:17:24;144870.81;;;2.78;100.00
6938;BME280;40040;42.706;23.372;2023-01-31T09:19:51;144878.16;;;2.81;100.00
6938;BME280;40040;42.706;23.372;2023-01-31T09:22:18;144937.03;;;3.05;100.00
6938;BME280;40040;42.706;23.372;2023-01-31T09:24:47;145005.66;;;3.33;100.00
6938;BME280;40040;42.706;23.372;2023-01-31T09:27:14;145057.19;;;3.54;100.00
6938;BME280;40040;42.706;23.372;2023-01-31T09:29:42;145086.63;;;3.66;100.00
6938;BME280;40040;42.706;23.372;2023-01-31T09:32:10;145085.44;;;3.66;100.00
6938;BME280;40040;42.706;23.372;2023-01-31T09:34:37;145068.25;;;3.59;100.00
6938;BME280;40040;42.706;23.372;2023-01-31T09:37:04;145040.00;;;3.47;100.00
6938;BME280;40040;42.706;23.372;2023-01-31T09:39:31;145040.00;;;3.47;100.00
6938;BME280;40040;42.706;23.372;2023-01-31T09:42:07;145094.03;;;3.69;100.00
6938;BME280;40040;42.706;23.372;2023-01-31T09:44:38;145116.09;;;3.78;100.00
6938;BME280;40040;42.706;23.372;2023-01-31T09:47:13;145095.22;;;3.70;100.00
6938;BME280;40040;42.706;23.372;2023-01-31T09:49:47;145138.16;;;3.87;100.00
6938;BME280;40040;42.706;23.372;2023-01-31T09:52:16;145182.34;;;4.05;100.00
6938;BME280;40040;42.706;23.372;2023-01-31T09:54:43;145209.38;;;4.16;100.00
6938;BME280;40040;42.706;23.372;2023-01-31T09:57:18;145194.63;;;4.10;100.00
6938;BME280;40040;42.706;23.372;2023-01-31T09:59:57;145209.38;;;4.16;100.00
6938;BME280;40040;42.706;23.372;2023-01-31T10:02:56;145233.91;;;4.26;100.00
6938;BME280;40040;42.706;23.372;2023-01-31T10:05:29;145296.50;;;4.52;100.00
6938;BME280;40040;42.706;23.372;2023-01-31T10:08:07;145332.09;;;4.67;100.00
6938;BME280;40040;42.706;23.372;2023-01-31T10:10:43;145327.19;;;4.65;100.00
6938;BME280;40040;42.706;23.372;2023-01-31T10:13:15;145267.03;;;4.40;100.00
6938;BME280;40040;42.706;23.372;2023-01-31T10:15:48;145323.50;;;4.63;100.00
6938;BME280;40040;42.706;23.372;2023-01-31T10:18:23;145381.19;;;4.87;100.00
6938;BME280;40040;42.706;23.372;2023-01-31T10:20:55;145381.19;;;4.87;100.00
6938;BME280;40040;42.706;23.372;2023-01-31T10:23:27;145343.13;;;4.71;100.00
6938;BME280;40040;42.706;23.372;2023-01-31T10:25:59;145298.97;;;4.53;100.00
6938;BME280;40040;42.706;23.372;2023-01-31T10:28:31;145243.72;;;4.30;100.00
6938;BME280;40040;42.706;23.372;2023-01-31T10:31:05;145243.72;;;4.30;100.00
6938;BME280;40040;42.706;23.372;2023-01-31T10:33:43;145240.00;;;4.29;100.00
6938;BME280;40040;42.706;23.372;2023-01-31T10:36:20;145145.56;;;3.90;100.00
6938;BME280;40040;42.706;23.372;2023-01-31T10:38:57;145199.53;;;4.12;100.00
6938;BME280;40040;42.706;23.372;2023-01-31T10:41:33;145192.19;;;4.09;100.00
6938;BME280;40040;42.706;23.372;2023-01-31T10:44:06;145187.25;;;4.07;100.00
6938;BME280;40040;42.706;23.372;2023-01-31T10:46:37;145152.91;;;3.93;100.00
6938;BME280;40040;42.706;23.372;2023-01-31T10:49:07;145157.81;;;3.95;100.00
6938;BME280;40040;42.706;23.372;2023-01-31T10:51:53;145152.91;;;3.93;100.00
6938;BME280;40040;42.706;23.372;2023-01-31T10:54:39;145129.56;;;3.84;100.00
6938;BME280;40040;42.706;23.372;2023-01-31T10:57:08;145118.53;;;3.79;100.00
6938;BME280;40040;42.706;23.372;2023-01-31T10:59:36;145112.38;;;3.77;100.00
6938;BME280;40040;42.706;23.372;2023-01-31T11:02:17;145103.78;;;3.73;100.00
6938;BME280;40040;42.706;23.372;2023-01-31T11:04:49;145101.38;;;3.72;100.00
6938;BME280;40040;42.706;23.372;2023-01-31T11:07:17;145089.09;;;3.67;100.00
6938;BME280;40040;42.706;23.372;2023-01-31T11:09:48;145087.84;;;3.67;100.00
6938;BME280;40040;42.706;23.372;2023-01-31T11:12:16;145079.28;;;3.63;100.00
6938;BME280;40040;42.706;23.372;2023-01-31T11:14:43;145056.00;;;3.54;100.00
6938;BME280;40040;42.706;23.372;2023-01-31T11:17:15;145058.41;;;3.55;100.00
6938;BME280;40040;42.706;23.372;2023-01-31T11:19:46;145035.13;;;3.45;100.00
6938;BME280;40040;42.706;23.372;2023-01-31T11:22:21;145013.06;;;3.36;100.00
6938;BME280;40040;42.706;23.372;2023-01-31T11:24:50;144998.31;;;3.30;100.00
6938;BME280;40040;42.706;23.372;2023-01-31T11:27:26;145017.97;;;3.38;100.00
6938;BME280;40040;42.706;23.372;2023-01-31T11:29:56;145000.81;;;3.31;100.00
6938;BME280;40040;42.706;23.372;2023-01-31T11:32:26;145017.97;;;3.38;100.00
6938;BME280;40040;42.706;23.372;2023-01-31T11:34:57;145011.81;;;3.35;100.00
6938;BME280;40040;42.706;23.372;2023-01-31T11:37:26;145013.06;;;3.36;100.00
6938;BME280;40040;42.706;23.372;2023-01-31T11:39:55;145010.56;;;3.35;100.00
6938;BME280;40040;42.706;23.372;2023-01-31T11:42:22;144993.41;;;3.28;100.00
6938;BME280;40040;42.706;23.372;2023-01-31T11:44:57;144959.06;;;3.14;100.00
6938;BME280;40040;42.706;23.372;2023-01-31T11:47:31;144979.97;;;3.22;100.00
6938;BME280;40040;42.706;23.372;2023-01-31T11:50:01;144976.22;;;3.21;100.00
6938;BME280;40040;42.706;23.372;2023-01-31T11:52:29;144937.03;;;3.05;100.00
6938;BME280;40040;42.706;23.372;2023-01-31T11:54:59;144963.97;;;3.16;100.00
6938;BME280;40040;42.706;23.372;2023-01-31T11:57:30;144928.44;;;3.01;100.00
6938;BME280;40040;42.706;23.372;2023-01-31T11:59:59;144907.63;;;2.93;100.00
6938;BME280;40040;42.706;23.372;2023-01-31T12:02:34;144892.88;;;2.87;100.00
6938;BME280;40040;42.706;23.372;2023-01-31T12:05:09;144875.72;;;2.80;100.00
6938;BME280;40040;42.706;23.372;2023-01-31T12:07:43;144884.28;;;2.83;100.00
6938;BME280;40040;42.706;23.372;2023-01-31T12:10:27;144905.13;;;2.92;100.00
6938;BME280;40040;42.706;23.372;2023-01-31T12:12:57;144907.63;;;2.93;100.00
6938;BME280;40040;42.706;23.372;2023-01-31T12:15:25;144927.22;;;3.01;100.00
6938;BME280;40040;42.706;23.372;2023-01-31T12:17:54;144907.63;;;2.93;100.00
6938;BME280;40040;42.706;23.372;2023-01-31T12:20:32;144911.28;;;2.94;100.00
6938;BME280;40040;42.706;23.372;2023-01-31T12:23:11;144929.63;;;3.02;100.00
6938;BME280;40040;42.706;23.372;2023-01-31T12:25:52;144929.63;;;3.02;100.00
6938;BME280;40040;42.706;23.372;2023-01-31T12:28:32;145006.91;;;3.33;100.00
6938;BME280;40040;42.706;23.372;2023-01-31T12:31:13;145037.56;;;3.46;100.00
6938;BME280;40040;42.706;23.372;2023-01-31T12:33:56;145071.94;;;3.60;100.00
6938;BME280;40040;42.706;23.372;2023-01-31T12:36:41;145079.28;;;3.63;100.00
6938;BME280;40040;42.706;23.372;2023-01-31T12:39:32;145078.06;;;3.63;100.00
6938;BME280;40040;42.706;23.372;2023-01-31T12:42:17;145021.63;;;3.39;100.00
6938;BME280;40040;42.706;23.372;2023-01-31T12:44:58;145022.84;;;3.40;100.00
6938;BME280;40040;42.706;23.372;2023-01-31T12:48:00;145017.97;;;3.38;100.00
6938;BME280;40040;42.706;23.372;2023-01-31T12:50:31;145010.56;;;3.35;100.00
6938;BME280;40040;42.706;23.372;2023-01-31T12:56:05;144937.03;;;3.05;100.00
6938;BME280;40040;42.706;23.372;2023-01-31T12:58:45;144982.38;;;3.23;100.00
6938;BME280;40040;42.706;23.372;2023-01-31T13:01:20;144972.56;;;3.19;100.00
6938;BME280;40040;42.706;23.372;2023-01-31T13:04:16;144963.97;;;3.16;100.00
6938;BME280;40040;42.706;23.372;2023-01-31T13:06:51;144927.22;;;3.01;100.00
6938;BME280;40040;42.706;23.372;2023-01-31T13:09:23;144951.72;;;3.11;100.00
6938;BME280;40040;42.706;23.372;2023-01-31T13:11:54;144940.72;;;3.06;100.00
6938;BME280;40040;42.706;23.372;2023-01-31T13:14:28;144897.78;;;2.89;100.00
6938;BME280;40040;42.706;23.372;2023-01-31T13:16:59;144924.78;;;3.00;100.00